SWA3402 KMDW-KTUL
Flight info
| Callsign | SWA3402 |
|---|---|
| Flight time | 1h 29m |
| Altitude | 32000 |
| Route | CICER4 ACITO DCT ADELL DCT ARLYN DCT STL J8 SGF VINTA3 |
| Aircraft | B38M/M-SADE2E3GHIJ4J7P2RWZ/LB1D1 |
Departure
| Time | 2026-05-08 23:29 |
|---|---|
| Airport | Chicago Midway International Airport (KMDW) |
Arrival
| Time | 2026-05-09 00:59 |
|---|---|
| Airport | Tulsa International Airport (KTUL) |
| Time | Latitude | Longitude | Altitude | Speed | Heading |
|---|---|---|---|---|---|
| 2026-05-08 23:14 | 41.78626 | -87.74641 | 631 ft | 0 kts | 71° |
| 2026-05-08 23:23 | 41.78624 | -87.74646 | 636 ft | 3 kts | 70° |
| 2026-05-08 23:23 | 41.78615 | -87.74678 | 636 ft | 4 kts | 63° |
| 2026-05-08 23:23 | 41.78602 | -87.74707 | 634 ft | 4 kts | 52° |
| 2026-05-08 23:23 | 41.78584 | -87.74729 | 636 ft | 4 kts | 23° |
| 2026-05-08 23:24 | 41.78577 | -87.74732 | 631 ft | 4 kts | 1° |
| 2026-05-08 23:24 | 41.78569 | -87.74731 | 631 ft | 4 kts | 323° |
| 2026-05-08 23:24 | 41.78566 | -87.74728 | 631 ft | 2 kts | 314° |
| 2026-05-08 23:26 | 41.78568 | -87.74730 | 631 ft | 1 kts | 314° |
| 2026-05-08 23:26 | 41.78575 | -87.74741 | 631 ft | 4 kts | 314° |
| 2026-05-08 23:27 | 41.78610 | -87.74792 | 631 ft | 13 kts | 303° |
| 2026-05-08 23:27 | 41.78553 | -87.74924 | 634 ft | 22 kts | 223° |
| 2026-05-08 23:27 | 41.78435 | -87.75073 | 634 ft | 24 kts | 223° |
| 2026-05-08 23:27 | 41.78305 | -87.75237 | 634 ft | 28 kts | 223° |
| 2026-05-08 23:28 | 41.78162 | -87.75418 | 637 ft | 29 kts | 223° |
| 2026-05-08 23:28 | 41.78015 | -87.75604 | 633 ft | 29 kts | 224° |
| 2026-05-08 23:28 | 41.77915 | -87.75767 | 640 ft | 17 kts | 264° |
| 2026-05-08 23:28 | 41.77957 | -87.75877 | 638 ft | 12 kts | 19° |
| 2026-05-08 23:29 | 41.78108 | -87.75688 | 635 ft | 67 kts | 43° |
| 2026-05-08 23:29 | 41.78630 | -87.75026 | 632 ft | 137 kts | 44° |
| 2026-05-08 23:29 | 41.79437 | -87.74011 | 880 ft | 171 kts | 44° |
| 2026-05-08 23:29 | 41.80141 | -87.72738 | 1676 ft | 177 kts | 74° |
| 2026-05-08 23:30 | 41.80107 | -87.71017 | 2169 ft | 202 kts | 111° |
| 2026-05-08 23:30 | 41.79314 | -87.69315 | 2551 ft | 232 kts | 126° |
| 2026-05-08 23:30 | 41.78311 | -87.67479 | 3043 ft | 253 kts | 126° |
| 2026-05-08 23:30 | 41.77134 | -87.65786 | 4182 ft | 237 kts | 145° |
| 2026-05-08 23:31 | 41.75631 | -87.64886 | 5202 ft | 247 kts | 168° |
| 2026-05-08 23:31 | 41.73867 | -87.64916 | 5727 ft | 266 kts | 196° |
| 2026-05-08 23:31 | 41.72234 | -87.66151 | 6330 ft | 278 kts | 228° |
| 2026-05-08 23:31 | 41.71088 | -87.68233 | 7282 ft | 277 kts | 235° |
| 2026-05-08 23:32 | 41.69866 | -87.70233 | 8267 ft | 277 kts | 232° |
| 2026-05-08 23:32 | 41.68644 | -87.72190 | 9235 ft | 277 kts | 231° |
| 2026-05-08 23:32 | 41.67409 | -87.74177 | 10177 ft | 279 kts | 232° |
| 2026-05-08 23:32 | 41.66134 | -87.76220 | 10723 ft | 295 kts | 232° |
| 2026-05-08 23:33 | 41.64766 | -87.78383 | 11070 ft | 315 kts | 232° |
| 2026-05-08 23:33 | 41.63310 | -87.80684 | 11412 ft | 333 kts | 233° |
| 2026-05-08 23:33 | 41.61790 | -87.83092 | 11876 ft | 344 kts | 233° |
| 2026-05-08 23:33 | 41.60246 | -87.85552 | 12660 ft | 345 kts | 234° |
| 2026-05-08 23:34 | 41.58710 | -87.88023 | 13376 ft | 348 kts | 234° |
| 2026-05-08 23:34 | 41.57160 | -87.90519 | 14072 ft | 350 kts | 234° |
| 2026-05-08 23:34 | 41.55601 | -87.93033 | 14749 ft | 352 kts | 234° |
| 2026-05-08 23:34 | 41.54031 | -87.95563 | 15385 ft | 355 kts | 234° |
| 2026-05-08 23:35 | 41.52471 | -87.98075 | 16022 ft | 357 kts | 235° |
| 2026-05-08 23:35 | 41.50880 | -88.00638 | 16631 ft | 360 kts | 235° |
| 2026-05-08 23:35 | 41.49277 | -88.03218 | 17201 ft | 363 kts | 235° |
| 2026-05-08 23:35 | 41.47664 | -88.05812 | 17762 ft | 365 kts | 235° |
| 2026-05-08 23:36 | 41.46039 | -88.08422 | 18326 ft | 367 kts | 235° |
| 2026-05-08 23:36 | 41.44399 | -88.11055 | 18887 ft | 369 kts | 235° |
| 2026-05-08 23:36 | 41.42756 | -88.13694 | 19409 ft | 372 kts | 235° |
| 2026-05-08 23:36 | 41.41077 | -88.16325 | 19922 ft | 377 kts | 231° |
| 2026-05-08 23:37 | 41.38922 | -88.18436 | 20478 ft | 390 kts | 213° |
| 2026-05-08 23:37 | 41.36412 | -88.19759 | 21004 ft | 397 kts | 207° |
| 2026-05-08 23:37 | 41.33801 | -88.20991 | 21447 ft | 401 kts | 207° |
| 2026-05-08 23:37 | 41.31163 | -88.22208 | 21931 ft | 402 kts | 206° |
| 2026-05-08 23:38 | 41.28503 | -88.23415 | 22379 ft | 405 kts | 206° |
| 2026-05-08 23:38 | 41.25828 | -88.24617 | 22812 ft | 408 kts | 206° |
| 2026-05-08 23:38 | 41.23141 | -88.25837 | 23257 ft | 409 kts | 206° |
| 2026-05-08 23:38 | 41.20437 | -88.27062 | 23675 ft | 412 kts | 206° |
| 2026-05-08 23:39 | 41.17718 | -88.28292 | 24094 ft | 413 kts | 206° |
| 2026-05-08 23:39 | 41.14987 | -88.29526 | 24508 ft | 415 kts | 206° |
| 2026-05-08 23:39 | 41.12248 | -88.30763 | 24884 ft | 417 kts | 207° |
| 2026-05-08 23:39 | 41.09558 | -88.31977 | 25255 ft | 419 kts | 207° |
| 2026-05-08 23:40 | 41.06769 | -88.33233 | 25615 ft | 421 kts | 207° |
| 2026-05-08 23:40 | 41.03977 | -88.34491 | 25973 ft | 423 kts | 207° |
| 2026-05-08 23:40 | 41.01186 | -88.35746 | 26359 ft | 424 kts | 207° |
| 2026-05-08 23:40 | 40.98390 | -88.37004 | 26698 ft | 426 kts | 207° |
| 2026-05-08 23:41 | 40.95577 | -88.38267 | 27024 ft | 428 kts | 207° |
| 2026-05-08 23:41 | 40.92748 | -88.39536 | 27337 ft | 430 kts | 207° |
| 2026-05-08 23:41 | 40.89907 | -88.40810 | 27643 ft | 432 kts | 207° |
| 2026-05-08 23:41 | 40.87053 | -88.42088 | 27947 ft | 434 kts | 207° |
| 2026-05-08 23:42 | 40.84191 | -88.43368 | 28244 ft | 436 kts | 207° |
| 2026-05-08 23:42 | 40.81309 | -88.44657 | 28511 ft | 438 kts | 207° |
| 2026-05-08 23:42 | 40.78455 | -88.45932 | 28783 ft | 440 kts | 207° |
| 2026-05-08 23:42 | 40.75558 | -88.47224 | 29106 ft | 440 kts | 207° |
| 2026-05-08 23:43 | 40.72660 | -88.48516 | 29490 ft | 439 kts | 207° |
| 2026-05-08 23:43 | 40.69766 | -88.49806 | 29887 ft | 438 kts | 207° |
| 2026-05-08 23:43 | 40.66889 | -88.51086 | 30284 ft | 436 kts | 208° |
| 2026-05-08 23:43 | 40.64019 | -88.52361 | 30701 ft | 433 kts | 208° |
| 2026-05-08 23:44 | 40.61168 | -88.53628 | 31098 ft | 431 kts | 208° |
| 2026-05-08 23:44 | 40.58339 | -88.54883 | 31517 ft | 429 kts | 208° |
| 2026-05-08 23:44 | 40.55514 | -88.56137 | 31834 ft | 428 kts | 208° |
| 2026-05-08 23:44 | 40.52698 | -88.57384 | 31872 ft | 425 kts | 208° |
| 2026-05-08 23:45 | 40.47168 | -88.59831 | 31860 ft | 422 kts | 208° |
| 2026-05-08 23:45 | 40.41596 | -88.62291 | 31868 ft | 422 kts | 208° |
| 2026-05-08 23:46 | 40.36025 | -88.64749 | 31868 ft | 423 kts | 208° |
| 2026-05-08 23:46 | 40.30948 | -88.68079 | 31865 ft | 395 kts | 229° |
| 2026-05-08 23:47 | 40.26905 | -88.72926 | 31868 ft | 396 kts | 230° |
| 2026-05-08 23:47 | 40.22932 | -88.77908 | 31867 ft | 395 kts | 231° |
| 2026-05-08 23:48 | 40.18998 | -88.82920 | 31873 ft | 395 kts | 231° |
| 2026-05-08 23:48 | 40.15061 | -88.87949 | 31872 ft | 396 kts | 231° |
| 2026-05-08 23:49 | 40.11122 | -88.92975 | 31877 ft | 396 kts | 231° |
| 2026-05-08 23:49 | 40.07208 | -88.97960 | 31872 ft | 396 kts | 231° |
| 2026-05-08 23:50 | 40.03266 | -89.02972 | 31868 ft | 396 kts | 231° |
| 2026-05-08 23:50 | 39.99318 | -89.07984 | 31870 ft | 397 kts | 231° |
| 2026-05-08 23:51 | 39.95324 | -89.13046 | 31871 ft | 404 kts | 230° |
| 2026-05-08 23:51 | 39.91307 | -89.18128 | 31867 ft | 405 kts | 230° |
| 2026-05-08 23:52 | 39.87261 | -89.23237 | 31867 ft | 405 kts | 231° |
| 2026-05-08 23:52 | 39.83207 | -89.28348 | 31876 ft | 406 kts | 230° |
| 2026-05-08 23:53 | 39.79144 | -89.33460 | 31879 ft | 407 kts | 230° |
| 2026-05-08 23:53 | 39.75104 | -89.38536 | 31879 ft | 407 kts | 230° |
| 2026-05-08 23:54 | 39.71033 | -89.43642 | 31879 ft | 407 kts | 230° |
| 2026-05-08 23:55 | 39.64923 | -89.51289 | 31880 ft | 407 kts | 230° |
| 2026-05-08 23:55 | 39.60847 | -89.56379 | 31887 ft | 407 kts | 230° |
| 2026-05-08 23:56 | 39.56797 | -89.61427 | 31886 ft | 407 kts | 230° |
| 2026-05-08 23:56 | 39.52711 | -89.66512 | 31889 ft | 408 kts | 230° |
| 2026-05-08 23:57 | 39.48622 | -89.71592 | 31887 ft | 407 kts | 230° |
| 2026-05-08 23:57 | 39.44534 | -89.76663 | 31880 ft | 407 kts | 230° |
| 2026-05-08 23:58 | 39.40472 | -89.81692 | 31878 ft | 407 kts | 230° |
| 2026-05-08 23:58 | 39.36380 | -89.86749 | 31879 ft | 407 kts | 230° |
| 2026-05-08 23:59 | 39.32287 | -89.91801 | 31878 ft | 407 kts | 230° |
| 2026-05-08 23:59 | 39.28191 | -89.96845 | 31878 ft | 407 kts | 230° |
| 2026-05-09 00:00 | 39.24097 | -90.01879 | 31878 ft | 407 kts | 230° |
| 2026-05-09 00:00 | 39.20025 | -90.06878 | 31875 ft | 407 kts | 229° |
| 2026-05-09 00:01 | 39.15912 | -90.11919 | 31871 ft | 407 kts | 229° |
| 2026-05-09 00:01 | 39.11808 | -90.16940 | 31867 ft | 407 kts | 229° |
| 2026-05-09 00:02 | 39.07955 | -90.21646 | 31869 ft | 407 kts | 229° |
| 2026-05-09 00:02 | 39.03876 | -90.26621 | 31872 ft | 407 kts | 229° |
| 2026-05-09 00:03 | 38.99758 | -90.31635 | 31862 ft | 407 kts | 229° |
| 2026-05-09 00:03 | 38.95645 | -90.36636 | 31861 ft | 407 kts | 229° |
| 2026-05-09 00:04 | 38.91533 | -90.41627 | 31857 ft | 407 kts | 229° |
| 2026-05-09 00:04 | 38.87413 | -90.46620 | 31857 ft | 407 kts | 229° |
| 2026-05-09 00:04 | 38.85573 | -90.49320 | 31850 ft | 398 kts | 240° |
| 2026-05-09 00:05 | 38.84088 | -90.52271 | 31865 ft | 399 kts | 239° |
| 2026-05-09 00:05 | 38.81034 | -90.58217 | 31858 ft | 399 kts | 240° |
| 2026-05-09 00:06 | 38.78004 | -90.64178 | 31860 ft | 399 kts | 240° |
| 2026-05-09 00:06 | 38.74975 | -90.70141 | 31858 ft | 401 kts | 240° |
| 2026-05-09 00:07 | 38.71935 | -90.76115 | 31857 ft | 400 kts | 240° |
| 2026-05-09 00:07 | 38.68917 | -90.82036 | 31865 ft | 400 kts | 240° |
| 2026-05-09 00:08 | 38.65873 | -90.87997 | 31867 ft | 400 kts | 240° |
| 2026-05-09 00:08 | 38.62826 | -90.93951 | 31869 ft | 400 kts | 240° |
| 2026-05-09 00:09 | 38.59780 | -90.99895 | 31867 ft | 399 kts | 240° |
| 2026-05-09 00:09 | 38.56752 | -91.05792 | 31873 ft | 400 kts | 240° |
| 2026-05-09 00:10 | 38.53700 | -91.11724 | 31868 ft | 399 kts | 239° |
| 2026-05-09 00:10 | 38.50649 | -91.17642 | 31869 ft | 400 kts | 239° |
| 2026-05-09 00:11 | 38.47593 | -91.23563 | 31868 ft | 399 kts | 239° |
| 2026-05-09 00:11 | 38.44555 | -91.29436 | 31866 ft | 399 kts | 239° |
| 2026-05-09 00:12 | 38.41492 | -91.35346 | 31870 ft | 399 kts | 239° |
| 2026-05-09 00:12 | 38.38430 | -91.41245 | 31873 ft | 399 kts | 239° |
| 2026-05-09 00:13 | 38.35353 | -91.47164 | 31866 ft | 405 kts | 240° |
| 2026-05-09 00:13 | 38.32199 | -91.53216 | 31861 ft | 414 kts | 240° |
| 2026-05-09 00:14 | 38.29008 | -91.59328 | 31865 ft | 419 kts | 240° |
| 2026-05-09 00:14 | 38.25779 | -91.65501 | 31861 ft | 420 kts | 240° |
| 2026-05-09 00:15 | 38.22539 | -91.71686 | 31860 ft | 421 kts | 240° |
| 2026-05-09 00:15 | 38.19304 | -91.77848 | 31858 ft | 422 kts | 240° |
| 2026-05-09 00:16 | 38.16037 | -91.84059 | 31859 ft | 423 kts | 240° |
| 2026-05-09 00:16 | 38.12761 | -91.90276 | 31864 ft | 424 kts | 240° |
| 2026-05-09 00:17 | 38.09477 | -91.96496 | 31863 ft | 424 kts | 240° |
| 2026-05-09 00:17 | 38.06185 | -92.02719 | 31849 ft | 425 kts | 240° |
| 2026-05-09 00:18 | 38.02911 | -92.08899 | 31852 ft | 425 kts | 240° |
| 2026-05-09 00:18 | 37.99613 | -92.15114 | 31846 ft | 425 kts | 240° |
| 2026-05-09 00:19 | 37.96310 | -92.21320 | 31833 ft | 424 kts | 240° |
| 2026-05-09 00:19 | 37.93004 | -92.27519 | 31832 ft | 424 kts | 240° |
| 2026-05-09 00:20 | 37.89722 | -92.33664 | 31832 ft | 424 kts | 240° |
| 2026-05-09 00:20 | 37.86415 | -92.39843 | 31834 ft | 424 kts | 240° |
| 2026-05-09 00:21 | 37.83104 | -92.46022 | 31837 ft | 423 kts | 240° |
| 2026-05-09 00:21 | 37.79799 | -92.52174 | 31836 ft | 423 kts | 240° |
| 2026-05-09 00:22 | 37.76518 | -92.58272 | 31839 ft | 422 kts | 240° |
| 2026-05-09 00:22 | 37.73213 | -92.64405 | 31837 ft | 422 kts | 239° |
| 2026-05-09 00:23 | 37.69915 | -92.70511 | 31846 ft | 421 kts | 239° |
| 2026-05-09 00:23 | 37.66617 | -92.76607 | 31857 ft | 420 kts | 239° |
| 2026-05-09 00:24 | 37.63317 | -92.82695 | 31848 ft | 420 kts | 239° |
| 2026-05-09 00:24 | 37.60261 | -92.88324 | 31855 ft | 419 kts | 239° |
| 2026-05-09 00:25 | 37.58356 | -92.91827 | 31852 ft | 419 kts | 239° |
| 2026-05-09 00:25 | 37.55057 | -92.97886 | 31846 ft | 419 kts | 239° |
| 2026-05-09 00:26 | 37.51784 | -93.03886 | 31849 ft | 416 kts | 239° |
| 2026-05-09 00:26 | 37.48555 | -93.09794 | 31848 ft | 410 kts | 239° |
| 2026-05-09 00:27 | 37.45310 | -93.15719 | 31844 ft | 410 kts | 239° |
| 2026-05-09 00:27 | 37.42066 | -93.21642 | 31847 ft | 411 kts | 238° |
| 2026-05-09 00:28 | 37.38821 | -93.27547 | 31831 ft | 410 kts | 238° |
| 2026-05-09 00:28 | 37.35656 | -93.33504 | 31821 ft | 407 kts | 247° |
| 2026-05-09 00:29 | 37.33590 | -93.40034 | 31827 ft | 406 kts | 250° |
| 2026-05-09 00:29 | 37.31530 | -93.46649 | 31831 ft | 406 kts | 250° |
| 2026-05-09 00:30 | 37.29490 | -93.53254 | 31831 ft | 406 kts | 250° |
| 2026-05-09 00:30 | 37.27444 | -93.59873 | 31834 ft | 407 kts | 250° |
| 2026-05-09 00:31 | 37.25409 | -93.66444 | 31837 ft | 407 kts | 250° |
| 2026-05-09 00:31 | 37.23491 | -93.72623 | 31838 ft | 407 kts | 250° |
| 2026-05-09 00:32 | 37.21419 | -93.79281 | 31841 ft | 407 kts | 250° |
| 2026-05-09 00:32 | 37.19365 | -93.85869 | 31542 ft | 401 kts | 250° |
| 2026-05-09 00:32 | 37.18345 | -93.89136 | 30687 ft | 404 kts | 250° |
| 2026-05-09 00:33 | 37.17312 | -93.92436 | 29793 ft | 408 kts | 250° |
| 2026-05-09 00:33 | 37.16422 | -93.95280 | 28972 ft | 413 kts | 250° |
| 2026-05-09 00:33 | 37.15508 | -93.98198 | 28178 ft | 416 kts | 250° |
| 2026-05-09 00:33 | 37.14449 | -94.01570 | 27448 ft | 415 kts | 250° |
| 2026-05-09 00:34 | 37.13397 | -94.04920 | 26827 ft | 411 kts | 250° |
| 2026-05-09 00:34 | 37.12406 | -94.08070 | 26252 ft | 407 kts | 250° |
| 2026-05-09 00:34 | 37.11590 | -94.10665 | 25777 ft | 404 kts | 250° |
| 2026-05-09 00:34 | 37.10562 | -94.13924 | 25201 ft | 400 kts | 250° |
| 2026-05-09 00:35 | 37.09546 | -94.17146 | 24618 ft | 396 kts | 250° |
| 2026-05-09 00:35 | 37.08555 | -94.20283 | 24060 ft | 392 kts | 251° |
| 2026-05-09 00:35 | 37.07814 | -94.22626 | 23656 ft | 389 kts | 250° |
| 2026-05-09 00:35 | 37.06821 | -94.25765 | 23064 ft | 386 kts | 250° |
| 2026-05-09 00:36 | 37.05834 | -94.28881 | 22448 ft | 384 kts | 251° |
| 2026-05-09 00:36 | 37.04852 | -94.31979 | 21869 ft | 382 kts | 251° |
| 2026-05-09 00:36 | 37.03876 | -94.35052 | 21302 ft | 379 kts | 251° |
| 2026-05-09 00:36 | 37.02905 | -94.38108 | 20711 ft | 377 kts | 251° |
| 2026-05-09 00:37 | 37.01939 | -94.41145 | 20144 ft | 375 kts | 251° |
| 2026-05-09 00:37 | 37.00989 | -94.44126 | 19618 ft | 372 kts | 251° |
| 2026-05-09 00:37 | 37.00033 | -94.47125 | 19055 ft | 370 kts | 251° |
| 2026-05-09 00:37 | 36.99082 | -94.50104 | 18526 ft | 368 kts | 251° |
| 2026-05-09 00:38 | 36.98136 | -94.53067 | 17973 ft | 366 kts | 251° |
| 2026-05-09 00:38 | 36.97193 | -94.56012 | 17445 ft | 364 kts | 251° |
| 2026-05-09 00:38 | 36.96257 | -94.58938 | 16920 ft | 362 kts | 250° |
| 2026-05-09 00:38 | 36.95322 | -94.61854 | 16414 ft | 360 kts | 250° |
| 2026-05-09 00:39 | 36.94394 | -94.64748 | 15908 ft | 357 kts | 250° |
| 2026-05-09 00:39 | 36.93470 | -94.67626 | 15383 ft | 356 kts | 250° |
| 2026-05-09 00:39 | 36.92563 | -94.70449 | 14872 ft | 354 kts | 250° |
| 2026-05-09 00:39 | 36.91648 | -94.73292 | 14399 ft | 352 kts | 250° |
| 2026-05-09 00:40 | 36.90736 | -94.76124 | 13890 ft | 351 kts | 250° |
| 2026-05-09 00:40 | 36.89949 | -94.78566 | 13438 ft | 349 kts | 250° |
| 2026-05-09 00:40 | 36.89044 | -94.81373 | 12958 ft | 347 kts | 250° |
| 2026-05-09 00:41 | 36.87359 | -94.86588 | 12044 ft | 344 kts | 250° |
| 2026-05-09 00:41 | 36.86464 | -94.89355 | 11490 ft | 344 kts | 249° |
| 2026-05-09 00:42 | 36.85562 | -94.92143 | 11150 ft | 338 kts | 249° |
| 2026-05-09 00:42 | 36.84695 | -94.94819 | 10999 ft | 328 kts | 249° |
| 2026-05-09 00:42 | 36.83865 | -94.97380 | 10857 ft | 308 kts | 249° |
| 2026-05-09 00:42 | 36.83087 | -94.99776 | 10736 ft | 290 kts | 249° |
| 2026-05-09 00:43 | 36.82342 | -95.02075 | 10603 ft | 280 kts | 249° |
| 2026-05-09 00:43 | 36.81420 | -95.04165 | 10462 ft | 274 kts | 231° |
| 2026-05-09 00:43 | 36.80105 | -95.05830 | 10354 ft | 265 kts | 228° |
| 2026-05-09 00:43 | 36.78845 | -95.07403 | 10248 ft | 255 kts | 227° |
| 2026-05-09 00:44 | 36.77607 | -95.08936 | 10151 ft | 248 kts | 227° |
| 2026-05-09 00:44 | 36.76353 | -95.10477 | 10034 ft | 259 kts | 227° |
| 2026-05-09 00:44 | 36.75052 | -95.12069 | 9906 ft | 265 kts | 227° |
| 2026-05-09 00:44 | 36.73729 | -95.13683 | 9795 ft | 267 kts | 226° |
| 2026-05-09 00:45 | 36.72399 | -95.15303 | 9694 ft | 267 kts | 226° |
| 2026-05-09 00:45 | 36.71068 | -95.16922 | 9578 ft | 267 kts | 226° |
| 2026-05-09 00:45 | 36.69738 | -95.18539 | 9465 ft | 267 kts | 226° |
| 2026-05-09 00:45 | 36.68408 | -95.20154 | 9360 ft | 267 kts | 226° |
| 2026-05-09 00:46 | 36.67077 | -95.21769 | 9347 ft | 268 kts | 226° |
| 2026-05-09 00:46 | 36.65762 | -95.23366 | 9347 ft | 268 kts | 226° |
| 2026-05-09 00:46 | 36.64427 | -95.24984 | 9347 ft | 268 kts | 226° |
| 2026-05-09 00:46 | 36.63093 | -95.26599 | 9347 ft | 268 kts | 226° |
| 2026-05-09 00:47 | 36.61756 | -95.28218 | 9347 ft | 268 kts | 226° |
| 2026-05-09 00:47 | 36.60419 | -95.29835 | 9346 ft | 268 kts | 226° |
| 2026-05-09 00:47 | 36.59081 | -95.31454 | 9344 ft | 268 kts | 225° |
| 2026-05-09 00:47 | 36.57743 | -95.33071 | 9346 ft | 269 kts | 225° |
| 2026-05-09 00:48 | 36.56402 | -95.34692 | 9342 ft | 269 kts | 225° |
| 2026-05-09 00:48 | 36.55077 | -95.36292 | 9130 ft | 269 kts | 225° |
| 2026-05-09 00:48 | 36.53738 | -95.37909 | 8891 ft | 268 kts | 225° |
| 2026-05-09 00:48 | 36.52404 | -95.39518 | 8651 ft | 267 kts | 225° |
| 2026-05-09 00:49 | 36.51073 | -95.41123 | 8411 ft | 266 kts | 225° |
| 2026-05-09 00:49 | 36.49745 | -95.42723 | 8173 ft | 266 kts | 225° |
| 2026-05-09 00:49 | 36.48421 | -95.44318 | 7933 ft | 264 kts | 225° |
| 2026-05-09 00:49 | 36.47103 | -95.45905 | 7694 ft | 263 kts | 225° |
| 2026-05-09 00:50 | 36.45790 | -95.47486 | 7455 ft | 263 kts | 225° |
| 2026-05-09 00:50 | 36.44492 | -95.49076 | 7219 ft | 262 kts | 230° |
| 2026-05-09 00:50 | 36.43564 | -95.50998 | 6969 ft | 260 kts | 246° |
| 2026-05-09 00:50 | 36.42861 | -95.53028 | 6730 ft | 259 kts | 247° |
| 2026-05-09 00:51 | 36.42153 | -95.55084 | 6496 ft | 259 kts | 247° |
| 2026-05-09 00:51 | 36.41445 | -95.57143 | 6254 ft | 259 kts | 247° |
| 2026-05-09 00:51 | 36.40742 | -95.59199 | 6010 ft | 258 kts | 247° |
| 2026-05-09 00:51 | 36.40040 | -95.61245 | 5769 ft | 257 kts | 247° |
| 2026-05-09 00:52 | 36.39440 | -95.63330 | 5516 ft | 256 kts | 261° |
| 2026-05-09 00:52 | 36.39372 | -95.65525 | 5285 ft | 255 kts | 271° |
| 2026-05-09 00:52 | 36.39432 | -95.67577 | 5057 ft | 251 kts | 272° |
| 2026-05-09 00:52 | 36.39496 | -95.69705 | 4825 ft | 245 kts | 272° |
| 2026-05-09 00:53 | 36.39554 | -95.71808 | 4589 ft | 242 kts | 272° |
| 2026-05-09 00:53 | 36.39605 | -95.73858 | 4352 ft | 240 kts | 272° |
| 2026-05-09 00:53 | 36.39651 | -95.75925 | 4113 ft | 239 kts | 272° |
| 2026-05-09 00:53 | 36.39692 | -95.77985 | 3878 ft | 238 kts | 272° |
| 2026-05-09 00:54 | 36.39727 | -95.80035 | 3640 ft | 237 kts | 272° |
| 2026-05-09 00:54 | 36.39735 | -95.82071 | 3398 ft | 235 kts | 266° |
| 2026-05-09 00:54 | 36.39177 | -95.83969 | 3072 ft | 237 kts | 237° |
| 2026-05-09 00:54 | 36.38129 | -95.85491 | 3056 ft | 225 kts | 232° |
| 2026-05-09 00:55 | 36.37134 | -95.86876 | 2972 ft | 212 kts | 232° |
| 2026-05-09 00:55 | 36.36136 | -95.88147 | 2955 ft | 201 kts | 217° |
| 2026-05-09 00:55 | 36.34831 | -95.88754 | 3063 ft | 206 kts | 196° |
| 2026-05-09 00:55 | 36.33404 | -95.89008 | 3047 ft | 205 kts | 189° |
| 2026-05-09 00:56 | 36.31987 | -95.88863 | 2721 ft | 203 kts | 169° |
| 2026-05-09 00:56 | 36.30716 | -95.88481 | 2491 ft | 175 kts | 171° |
| 2026-05-09 00:56 | 36.29554 | -95.88312 | 2261 ft | 163 kts | 179° |
| 2026-05-09 00:56 | 36.28448 | -95.88296 | 1880 ft | 154 kts | 175° |
| 2026-05-09 00:57 | 36.27385 | -95.88183 | 1450 ft | 157 kts | 175° |
| 2026-05-09 00:57 | 36.26244 | -95.88021 | 1345 ft | 169 kts | 172° |
| 2026-05-09 00:57 | 36.25139 | -95.87905 | 1350 ft | 154 kts | 178° |
| 2026-05-09 00:57 | 36.24073 | -95.87959 | 1169 ft | 153 kts | 182° |
| 2026-05-09 00:58 | 36.23006 | -95.88030 | 994 ft | 154 kts | 182° |
| 2026-05-09 00:58 | 36.21914 | -95.88102 | 779 ft | 165 kts | 182° |
| 2026-05-09 00:58 | 36.20792 | -95.88174 | 674 ft | 152 kts | 182° |
| 2026-05-09 00:58 | 36.19973 | -95.88226 | 671 ft | 72 kts | 184° |
| 2026-05-09 00:59 | 36.19536 | -95.88259 | 672 ft | 57 kts | 182° |
| 2026-05-09 00:59 | 36.19291 | -95.88292 | 670 ft | 15 kts | 206° |
| 2026-05-09 00:59 | 36.19197 | -95.88364 | 670 ft | 17 kts | 212° |
| 2026-05-09 00:59 | 36.19149 | -95.88483 | 670 ft | 17 kts | 281° |
| 2026-05-09 01:00 | 36.19210 | -95.88614 | 670 ft | 18 kts | 308° |
| 2026-05-09 01:00 | 36.19291 | -95.88744 | 670 ft | 20 kts | 308° |
| 2026-05-09 01:00 | 36.19349 | -95.88837 | 670 ft | 10 kts | 307° |
| 2026-05-09 01:00 | 36.19378 | -95.88918 | 670 ft | 11 kts | 258° |
| 2026-05-09 01:01 | 36.19326 | -95.88984 | 670 ft | 9 kts | 216° |
| 2026-05-09 01:01 | 36.19272 | -95.89032 | 667 ft | 10 kts | 217° |
| 2026-05-09 01:01 | 36.19212 | -95.89053 | 670 ft | 10 kts | 141° |
| 2026-05-09 01:01 | 36.19196 | -95.89029 | 670 ft | 0 kts | 129° |
| 2026-05-09 01:02 | 36.19194 | -95.89026 | 670 ft | 1 kts | 129° |
| 2026-05-09 01:02 | 36.19194 | -95.89025 | 670 ft | 0 kts | 129° |